createdAt,value
2023-05-24T00:02:08.615Z,5.30
2023-05-24T00:04:35.467Z,5.70
2023-05-24T00:07:03.491Z,4.33
2023-05-24T00:09:30.916Z,5.57
2023-05-24T00:11:57.728Z,4.80
2023-05-24T00:14:25.132Z,5.10
2023-05-24T00:16:51.776Z,4.97
2023-05-24T00:19:18.859Z,4.90
2023-05-24T00:21:46.171Z,5.80
2023-05-24T00:24:13.150Z,5.27
2023-05-24T00:26:40.087Z,5.10
2023-05-24T00:29:07.036Z,5.47
2023-05-24T00:31:33.737Z,4.80
2023-05-24T00:34:00.722Z,5.30
2023-05-24T00:36:27.436Z,5.20
2023-05-24T00:38:54.338Z,6.03
2023-05-24T00:41:20.969Z,5.70
2023-05-24T00:43:47.871Z,5.33
2023-05-24T00:46:30.876Z,5.00
2023-05-24T00:48:58.103Z,4.90
2023-05-24T00:51:30.311Z,4.87
2023-05-24T00:53:57.377Z,5.70
2023-05-24T00:56:24.179Z,4.90
2023-05-24T00:58:54.631Z,5.67
2023-05-24T01:01:21.779Z,5.80
2023-05-24T01:03:48.552Z,5.40
2023-05-24T01:06:16.223Z,6.07
2023-05-24T01:09:09.439Z,6.30
2023-05-24T01:11:46.004Z,5.90
2023-05-24T01:14:41.992Z,4.70
2023-05-24T01:17:29.969Z,5.50
2023-05-24T01:20:00.027Z,4.10
2023-05-24T01:22:32.536Z,5.60
2023-05-24T01:25:05.033Z,5.47
2023-05-24T01:27:33.787Z,5.80
2023-05-24T01:30:01.201Z,5.33
2023-05-24T01:32:28.482Z,5.40
2023-05-24T01:34:55.213Z,6.53
2023-05-24T01:37:21.685Z,5.97
2023-05-24T01:39:49.013Z,5.30
2023-05-24T01:42:27.804Z,5.47
2023-05-24T01:45:06.336Z,5.37
2023-05-24T01:48:00.623Z,4.90
2023-05-24T01:50:32.079Z,5.20
2023-05-24T01:53:00.820Z,5.63
2023-05-24T01:55:28.252Z,5.13
2023-05-24T01:58:00.867Z,5.40
2023-05-24T02:00:27.547Z,7.13
2023-05-24T02:02:54.541Z,5.50
2023-05-24T02:05:21.756Z,5.60
2023-05-24T02:07:48.306Z,5.80
2023-05-24T02:10:14.823Z,5.40
2023-05-24T02:12:41.340Z,5.70
2023-05-24T02:15:09.209Z,4.80
2023-05-24T02:17:36.227Z,4.93
2023-05-24T02:20:04.055Z,5.57
2023-05-24T02:22:30.812Z,5.53
2023-05-24T02:24:57.779Z,5.47
2023-05-24T02:27:24.326Z,5.33
2023-05-24T02:29:50.798Z,4.70
2023-05-24T02:32:17.354Z,4.63
2023-05-24T02:34:44.387Z,5.40
2023-05-24T02:37:14.758Z,4.83
2023-05-24T02:39:42.132Z,5.23
2023-05-24T02:42:11.547Z,5.37
2023-05-24T02:44:38.163Z,4.77
2023-05-24T02:47:04.968Z,5.60
2023-05-24T02:49:31.498Z,4.67
2023-05-24T02:51:58.059Z,5.60
2023-05-24T02:54:24.706Z,5.13
2023-05-24T02:56:51.757Z,4.80
2023-05-24T02:59:18.321Z,4.30
2023-05-24T03:01:45.114Z,5.00
2023-05-24T03:04:11.755Z,5.30
2023-05-24T03:06:38.260Z,5.60
2023-05-24T03:09:05.464Z,5.20
2023-05-24T03:11:32.054Z,5.10
2023-05-24T03:13:58.637Z,4.90
2023-05-24T03:16:25.346Z,4.33
2023-05-24T03:18:54.100Z,4.73
2023-05-24T03:21:21.312Z,5.33
2023-05-24T03:23:48.363Z,5.10
2023-05-24T03:26:14.916Z,6.10
2023-05-24T03:28:41.910Z,7.93
2023-05-24T03:31:08.893Z,4.50
2023-05-24T03:33:36.926Z,5.43
2023-05-24T03:36:04.274Z,4.90
2023-05-24T03:38:31.785Z,4.97
2023-05-24T03:40:58.263Z,5.20
2023-05-24T03:43:25.398Z,4.30
2023-05-24T03:45:55.809Z,5.03
2023-05-24T03:48:22.340Z,4.77
2023-05-24T03:50:51.268Z,4.37
2023-05-24T03:53:17.847Z,4.40
2023-05-24T03:55:44.342Z,4.77
2023-05-24T03:58:12.566Z,4.50
2023-05-24T04:00:39.232Z,4.70
2023-05-24T04:03:09.121Z,4.90
2023-05-24T04:05:35.815Z,4.40
2023-05-24T04:08:02.917Z,4.40
2023-05-24T04:10:29.555Z,4.97
2023-05-24T04:12:57.364Z,4.03
2023-05-24T04:15:24.112Z,4.70
2023-05-24T04:17:55.081Z,4.90
2023-05-24T04:20:27.222Z,4.73
2023-05-24T04:22:54.402Z,3.73
2023-05-24T04:25:21.011Z,4.10
2023-05-24T04:27:49.374Z,3.50
2023-05-24T04:30:16.672Z,3.53
2023-05-24T04:32:46.765Z,4.93
2023-05-24T04:35:14.092Z,4.20
2023-05-24T04:37:40.975Z,4.33
2023-05-24T04:40:08.597Z,4.00
2023-05-24T04:42:35.997Z,4.73
2023-05-24T04:45:02.559Z,4.00
2023-05-24T04:47:29.091Z,4.33
2023-05-24T04:49:55.591Z,4.20
2023-05-24T04:52:22.596Z,3.60
2023-05-24T04:54:49.515Z,4.20
2023-05-24T04:57:16.073Z,3.87
2023-05-24T04:59:42.679Z,3.40
2023-05-24T05:02:09.256Z,3.43
2023-05-24T05:04:35.839Z,3.27
2023-05-24T05:07:03.656Z,3.60
2023-05-24T05:09:30.397Z,3.20
2023-05-24T05:11:57.007Z,3.00
2023-05-24T05:14:23.498Z,3.50
2023-05-24T05:16:50.078Z,2.90
2023-05-24T05:19:16.752Z,3.70
2023-05-24T05:21:43.334Z,3.70
2023-05-24T05:24:09.855Z,3.23
2023-05-24T05:26:36.481Z,3.50
2023-05-24T05:29:03.664Z,3.50
2023-05-24T05:31:30.847Z,3.50
2023-05-24T05:33:57.422Z,3.07
2023-05-24T05:36:23.940Z,3.70
2023-05-24T05:38:50.418Z,2.97
2023-05-24T05:41:16.930Z,3.30
2023-05-24T05:43:43.421Z,3.80
2023-05-24T05:46:11.172Z,2.87
2023-05-24T05:48:37.829Z,3.10
2023-05-24T05:51:04.322Z,2.80
2023-05-24T05:53:31.240Z,3.00
2023-05-24T05:55:57.733Z,3.37
2023-05-24T05:58:24.236Z,3.20
2023-05-24T06:00:51.088Z,3.20
2023-05-24T06:03:17.780Z,2.63
2023-05-24T06:05:44.423Z,3.23
2023-05-24T06:08:10.896Z,2.70
2023-05-24T06:10:37.415Z,3.00
2023-05-24T06:13:04.779Z,2.60
2023-05-24T06:15:33.331Z,3.43
2023-05-24T06:18:02.042Z,2.47
2023-05-24T06:20:28.816Z,2.50
2023-05-24T06:22:55.446Z,2.70
2023-05-24T06:25:24.177Z,2.70
2023-05-24T06:27:51.660Z,3.20
2023-05-24T06:30:18.554Z,2.67
2023-05-24T06:32:45.212Z,2.50
2023-05-24T06:35:11.811Z,2.43
2023-05-24T06:37:38.650Z,2.77
2023-05-24T06:40:10.580Z,3.00
2023-05-24T06:42:37.253Z,2.90
2023-05-24T06:45:03.900Z,2.10
2023-05-24T06:47:30.794Z,2.77
2023-05-24T06:49:58.365Z,2.40
2023-05-24T06:52:24.893Z,2.97
2023-05-24T06:54:52.118Z,2.30
2023-05-24T06:57:18.806Z,2.00
2023-05-24T06:59:45.305Z,2.50
2023-05-24T07:02:11.832Z,2.70
2023-05-24T07:04:41.088Z,2.50
2023-05-24T07:07:09.020Z,2.53
2023-05-24T07:09:35.739Z,2.40
2023-05-24T07:12:02.855Z,2.17
2023-05-24T07:14:29.378Z,2.17
2023-05-24T07:16:57.510Z,2.07
2023-05-24T07:19:29.275Z,2.50
2023-05-24T07:21:56.813Z,1.87
2023-05-24T07:24:24.105Z,2.80
2023-05-24T07:26:51.724Z,2.13
2023-05-24T07:29:18.203Z,1.97
2023-05-24T07:31:44.759Z,2.70
2023-05-24T07:34:11.261Z,2.30
2023-05-24T07:36:37.972Z,2.40
2023-05-24T07:39:06.139Z,2.20
2023-05-24T07:41:33.507Z,1.97
2023-05-24T07:44:00.172Z,2.10
2023-05-24T07:46:26.761Z,1.90
2023-05-24T07:48:53.309Z,1.87
2023-05-24T07:51:20.799Z,2.30
2023-05-24T07:53:47.358Z,2.70
2023-05-24T07:56:14.056Z,2.13
2023-05-24T07:58:41.892Z,2.13
2023-05-24T08:01:08.729Z,2.17
2023-05-24T08:03:35.352Z,2.00
2023-05-24T08:06:01.897Z,1.50
2023-05-24T08:08:28.416Z,1.10
2023-05-24T08:10:54.946Z,1.90
2023-05-24T08:13:21.443Z,1.80
2023-05-24T08:15:48.356Z,1.90
2023-05-24T08:18:14.898Z,1.60
2023-05-24T08:20:41.656Z,3.20
2023-05-24T08:23:08.335Z,1.87
2023-05-24T08:25:34.899Z,1.93
2023-05-24T08:28:01.429Z,1.80
2023-05-24T08:30:28.055Z,1.73
2023-05-24T08:32:54.614Z,1.87
2023-05-24T08:35:22.109Z,1.87
2023-05-24T08:37:49.853Z,2.00
2023-05-24T08:40:16.720Z,2.07
2023-05-24T08:42:44.327Z,1.60
2023-05-24T08:45:15.078Z,1.50
2023-05-24T08:47:42.357Z,1.73
2023-05-24T08:50:09.345Z,1.90
2023-05-24T08:52:36.125Z,1.67
2023-05-24T08:55:04.855Z,3.13
2023-05-24T08:57:32.563Z,2.10
2023-05-24T08:59:59.221Z,2.07
2023-05-24T09:02:26.766Z,1.80
2023-05-24T09:04:53.636Z,2.53
2023-05-24T09:07:25.417Z,1.70
2023-05-24T09:10:00.964Z,1.60
2023-05-24T09:12:38.026Z,1.47
2023-05-24T09:15:07.701Z,1.50
2023-05-24T09:17:35.028Z,1.83
2023-05-24T09:20:02.035Z,1.80
2023-05-24T09:22:30.556Z,1.57
2023-05-24T09:25:04.647Z,1.47
2023-05-24T09:27:32.522Z,1.83
2023-05-24T09:29:59.072Z,1.43
2023-05-24T09:32:25.677Z,1.47
2023-05-24T09:34:56.137Z,1.70
2023-05-24T09:37:29.067Z,1.33
2023-05-24T09:39:58.631Z,1.77
2023-05-24T09:42:28.098Z,2.20
2023-05-24T09:45:10.006Z,1.93
2023-05-24T09:47:38.026Z,2.50
2023-05-24T09:50:07.288Z,2.30
2023-05-24T09:52:37.652Z,1.90
2023-05-24T09:55:18.269Z,1.80
2023-05-24T09:57:46.055Z,1.90
2023-05-24T10:00:21.610Z,1.80
2023-05-24T10:03:00.940Z,2.17
2023-05-24T10:05:27.663Z,1.70
2023-05-24T10:07:54.257Z,2.30
2023-05-24T10:10:20.777Z,2.07
2023-05-24T10:12:47.564Z,1.70
2023-05-24T10:15:14.153Z,2.10
2023-05-24T10:17:41.009Z,1.70
2023-05-24T10:20:08.902Z,2.00
2023-05-24T10:22:41.813Z,1.93
2023-05-24T10:25:10.783Z,1.90
2023-05-24T10:27:38.249Z,1.73
2023-05-24T10:30:14.180Z,2.30
2023-05-24T10:32:42.651Z,1.90
2023-05-24T10:35:12.306Z,1.87
2023-05-24T10:37:39.045Z,1.40
2023-05-24T10:40:10.047Z,2.40
2023-05-24T10:42:38.802Z,1.50
2023-05-24T10:45:31.745Z,1.53
2023-05-24T10:48:01.847Z,2.03
2023-05-24T10:50:28.594Z,1.67
2023-05-24T10:53:14.241Z,1.70
2023-05-24T10:56:01.121Z,1.80
2023-05-24T10:58:33.493Z,1.93
2023-05-24T11:01:00.195Z,2.10
2023-05-24T11:03:33.083Z,1.70
2023-05-24T11:05:59.928Z,1.50
2023-05-24T11:08:35.608Z,1.97
2023-05-24T11:11:22.241Z,1.97
2023-05-24T11:13:56.099Z,2.10
2023-05-24T11:16:38.713Z,1.70
2023-05-24T11:19:13.765Z,2.33
2023-05-24T11:21:41.259Z,1.70
2023-05-24T11:24:08.368Z,1.93
2023-05-24T11:26:35.971Z,1.60
2023-05-24T11:29:05.305Z,1.57
2023-05-24T11:31:32.036Z,2.20
2023-05-24T11:34:00.715Z,1.70
2023-05-24T11:36:27.376Z,1.73
2023-05-24T11:38:55.837Z,1.93
2023-05-24T11:41:22.323Z,2.20
2023-05-24T11:43:48.887Z,2.10
2023-05-24T11:46:15.751Z,2.00
2023-05-24T11:48:42.396Z,1.73
2023-05-24T11:51:09.015Z,1.63
2023-05-24T11:53:35.572Z,2.00
2023-05-24T11:56:02.101Z,2.33
2023-05-24T11:58:50.083Z,1.60
2023-05-24T12:01:27.323Z,2.00
2023-05-24T12:03:54.758Z,2.10
2023-05-24T12:06:22.380Z,1.80
2023-05-24T12:08:49.686Z,2.40
2023-05-24T12:11:17.165Z,1.57
2023-05-24T12:13:43.743Z,1.90
2023-05-24T12:16:12.998Z,1.70
2023-05-24T12:18:45.836Z,1.90
2023-05-24T12:21:20.092Z,1.77
2023-05-24T12:23:48.324Z,1.93
2023-05-24T12:26:18.933Z,2.30
2023-05-24T12:28:45.419Z,1.80
2023-05-24T12:31:12.265Z,2.10
2023-05-24T12:33:39.589Z,2.17
2023-05-24T12:36:07.508Z,1.90
2023-05-24T12:38:34.036Z,2.10
2023-05-24T12:41:12.131Z,2.00
2023-05-24T12:43:40.880Z,1.77
2023-05-24T12:46:07.679Z,1.83
2023-05-24T12:48:34.213Z,2.07
2023-05-24T12:51:02.057Z,2.60
2023-05-24T12:53:28.649Z,2.37
2023-05-24T12:55:56.117Z,2.97
2023-05-24T12:58:22.654Z,2.80
2023-05-24T13:00:50.446Z,2.60
2023-05-24T13:03:17.074Z,2.23
2023-05-24T13:05:44.208Z,2.70
2023-05-24T13:08:10.785Z,2.77
2023-05-24T13:10:37.396Z,3.30
2023-05-24T13:13:03.912Z,2.80
2023-05-24T13:15:30.587Z,2.63
2023-05-24T13:17:57.179Z,2.90
2023-05-24T13:20:24.460Z,3.10
2023-05-24T13:22:51.273Z,2.60
2023-05-24T13:25:17.771Z,2.60
2023-05-24T13:27:44.398Z,3.53
2023-05-24T13:30:12.467Z,2.90
2023-05-24T13:32:41.028Z,2.80
2023-05-24T13:35:08.684Z,2.43
2023-05-24T13:37:35.349Z,2.67
2023-05-24T13:40:01.976Z,3.80
2023-05-24T13:42:28.602Z,3.10
2023-05-24T13:44:56.285Z,3.40
2023-05-24T13:47:35.215Z,3.20
2023-05-24T13:52:47.373Z,4.87
2023-05-24T13:55:14.406Z,3.97
2023-05-24T13:57:51.317Z,3.90
2023-05-24T14:00:19.224Z,4.80
2023-05-24T14:02:45.957Z,3.77
2023-05-24T14:07:42.379Z,5.77
2023-05-24T14:10:09.683Z,5.47
2023-05-24T14:12:36.275Z,5.17
2023-05-24T14:15:04.805Z,4.40
2023-05-24T14:17:31.346Z,4.33
2023-05-24T14:19:57.921Z,7.40
2023-05-24T14:22:25.943Z,5.70
2023-05-24T14:24:53.317Z,5.83
2023-05-24T14:27:19.791Z,5.37
2023-05-24T14:29:47.329Z,4.90
2023-05-24T14:32:16.800Z,5.87
2023-05-24T14:34:43.888Z,6.57
2023-05-24T14:37:10.457Z,5.20
2023-05-24T14:39:36.971Z,4.67
2023-05-24T14:42:03.494Z,5.20
2023-05-24T14:44:29.982Z,4.67
2023-05-24T14:46:56.478Z,5.50
2023-05-24T14:49:23.004Z,5.67
2023-05-24T14:51:49.552Z,5.83
2023-05-24T14:54:16.600Z,5.60
2023-05-24T14:56:43.110Z,4.97
2023-05-24T14:59:09.615Z,4.90
2023-05-24T15:01:36.739Z,5.37
2023-05-24T15:04:03.619Z,5.23
2023-05-24T15:06:34.753Z,5.90
2023-05-24T15:09:02.557Z,5.13
2023-05-24T15:11:29.578Z,6.00
2023-05-24T15:13:58.775Z,6.10
2023-05-24T15:16:26.243Z,5.50
2023-05-24T15:18:53.235Z,4.63
2023-05-24T15:21:20.354Z,6.03
2023-05-24T15:23:47.169Z,5.20
2023-05-24T15:26:13.958Z,5.77
2023-05-24T15:28:40.578Z,6.13
2023-05-24T15:31:07.282Z,6.00
2023-05-24T15:33:35.975Z,5.27
2023-05-24T15:36:03.969Z,5.40
2023-05-24T15:38:30.492Z,5.03
2023-05-24T15:40:56.983Z,5.30
2023-05-24T15:43:24.183Z,5.23
2023-05-24T15:45:50.848Z,6.20
2023-05-24T15:48:17.605Z,4.80
2023-05-24T15:51:09.270Z,4.33
2023-05-24T15:53:30.894Z,4.70
2023-05-24T15:55:57.476Z,5.10
2023-05-24T15:58:24.001Z,4.47
2023-05-24T16:00:51.180Z,5.03
2023-05-24T16:03:17.829Z,3.93
2023-05-24T16:05:44.418Z,4.83
2023-05-24T16:08:10.989Z,4.63
2023-05-24T16:10:37.505Z,4.23
2023-05-24T16:13:04.001Z,4.60
2023-05-24T16:15:30.637Z,3.93
2023-05-24T16:17:57.260Z,5.17
2023-05-24T16:20:23.871Z,4.20
2023-05-24T16:22:50.429Z,4.73
2023-05-24T16:25:17.017Z,4.03
2023-05-24T16:27:43.545Z,5.00
2023-05-24T16:30:10.426Z,3.90
2023-05-24T16:32:37.086Z,3.80
2023-05-24T16:35:04.767Z,3.90
2023-05-24T16:37:31.277Z,3.50
2023-05-24T16:39:57.826Z,4.97
2023-05-24T16:42:24.364Z,4.33
2023-05-24T16:44:51.700Z,4.77
2023-05-24T16:47:18.263Z,3.73
2023-05-24T16:49:44.869Z,3.90
2023-05-24T16:52:11.428Z,4.00
2023-05-24T16:54:37.929Z,4.10
2023-05-24T16:57:04.564Z,4.37
2023-05-24T16:59:31.190Z,4.10
2023-05-24T17:01:57.831Z,3.47
2023-05-24T17:04:24.375Z,4.53
2023-05-24T17:06:50.887Z,4.00
2023-05-24T17:09:17.636Z,4.00
2023-05-24T17:11:44.135Z,4.20
2023-05-24T17:14:11.838Z,4.33
2023-05-24T17:16:38.468Z,4.67
2023-05-24T17:19:05.128Z,4.83
2023-05-24T17:21:31.641Z,4.40
2023-05-24T17:23:58.108Z,4.83
2023-05-24T17:26:24.600Z,5.60
2023-05-24T17:28:51.763Z,4.90
2023-05-24T17:31:18.356Z,4.73
2023-05-24T17:33:44.920Z,4.80
2023-05-24T17:36:11.433Z,6.30
2023-05-24T17:38:37.971Z,5.10
2023-05-24T17:41:07.336Z,5.70
2023-05-24T17:43:33.884Z,5.13
2023-05-24T17:46:06.756Z,6.10
2023-05-24T17:48:34.486Z,5.67
2023-05-24T17:51:01.711Z,7.00
2023-05-24T17:53:31.570Z,5.40
2023-05-24T17:55:59.109Z,5.60
2023-05-24T17:58:25.748Z,6.00
2023-05-24T18:00:52.585Z,5.40
2023-05-24T18:03:19.172Z,5.73
2023-05-24T18:05:46.290Z,6.80
2023-05-24T18:08:12.785Z,6.93
2023-05-24T18:10:39.283Z,7.03
2023-05-24T18:13:08.483Z,7.23
2023-05-24T18:15:35.358Z,7.37
2023-05-24T18:18:02.425Z,7.03
2023-05-24T18:20:29.037Z,7.00
2023-05-24T18:22:55.851Z,6.80
2023-05-24T18:25:22.680Z,8.70
2023-05-24T18:27:49.162Z,7.30
2023-05-24T18:30:17.113Z,7.47
2023-05-24T18:32:55.958Z,7.10
2023-05-24T18:35:30.623Z,7.30
2023-05-24T18:37:57.113Z,7.17
2023-05-24T18:40:23.714Z,6.80
2023-05-24T18:42:50.600Z,6.83
2023-05-24T18:45:17.485Z,7.07
2023-05-24T18:47:44.111Z,6.77
2023-05-24T18:50:11.021Z,6.13
2023-05-24T18:52:37.673Z,6.57
2023-05-24T18:55:10.580Z,6.60
2023-05-24T18:57:37.805Z,6.87
2023-05-24T19:00:06.993Z,6.77
2023-05-24T19:02:39.770Z,7.60
2023-05-24T19:05:09.891Z,6.20
2023-05-24T19:07:36.504Z,6.60
2023-05-24T19:10:04.011Z,7.83
2023-05-24T19:12:30.690Z,7.53
2023-05-24T19:14:57.387Z,7.40
2023-05-24T19:17:24.963Z,6.80
2023-05-24T19:19:51.727Z,7.57
2023-05-24T19:22:18.335Z,7.30
2023-05-24T19:24:44.858Z,7.33
2023-05-24T19:27:11.351Z,7.30
2023-05-24T19:29:39.724Z,7.10
2023-05-24T19:32:07.145Z,8.43
2023-05-24T19:34:35.241Z,8.90
2023-05-24T19:37:01.823Z,7.30
2023-05-24T19:39:28.495Z,8.07
2023-05-24T19:41:55.006Z,7.60
2023-05-24T19:44:21.602Z,8.00
2023-05-24T19:46:48.146Z,7.90
2023-05-24T19:49:14.662Z,8.40
2023-05-24T19:51:41.192Z,8.23
2023-05-24T19:54:09.244Z,7.90
2023-05-24T19:56:36.190Z,7.40
2023-05-24T19:59:02.771Z,6.17
2023-05-24T20:01:29.430Z,8.10
2023-05-24T20:03:56.183Z,8.20
2023-05-24T20:06:22.853Z,7.73
2023-05-24T20:08:49.385Z,7.60
2023-05-24T20:11:15.984Z,8.70
2023-05-24T20:13:42.529Z,8.00
2023-05-24T20:16:09.111Z,7.60
2023-05-24T20:18:35.963Z,9.07
2023-05-24T20:21:03.107Z,9.93
2023-05-24T20:23:30.761Z,9.90
2023-05-24T20:25:57.732Z,8.57
2023-05-24T20:28:30.643Z,9.10
2023-05-24T20:30:58.642Z,9.43
2023-05-24T20:33:25.129Z,8.23
2023-05-24T20:35:53.105Z,8.17
2023-05-24T20:38:19.830Z,9.57
2023-05-24T20:40:46.522Z,9.77
2023-05-24T20:43:13.112Z,9.23
2023-05-24T20:45:39.718Z,10.07
2023-05-24T20:48:06.503Z,9.20
2023-05-24T20:50:33.159Z,9.33
2023-05-24T20:52:59.669Z,8.67
2023-05-24T20:55:27.147Z,9.27
2023-05-24T20:57:53.865Z,9.47
2023-05-24T21:00:20.416Z,9.37
2023-05-24T21:02:46.974Z,11.03
2023-05-24T21:05:13.612Z,9.03
2023-05-24T21:07:40.320Z,9.50
2023-05-24T21:10:07.634Z,9.73
2023-05-24T21:12:34.151Z,9.60
2023-05-24T21:15:00.790Z,9.10
2023-05-24T21:17:27.352Z,9.07
2023-05-24T21:19:53.994Z,8.83
2023-05-24T21:22:20.518Z,8.70
2023-05-24T21:24:47.057Z,8.40
2023-05-24T21:27:13.993Z,9.10
2023-05-24T21:29:41.713Z,9.00
2023-05-24T21:32:08.210Z,8.83
2023-05-24T21:34:35.780Z,8.70
2023-05-24T21:37:02.607Z,8.80
2023-05-24T21:39:29.294Z,9.33
2023-05-24T21:41:55.865Z,9.67
2023-05-24T21:44:22.391Z,9.10
2023-05-24T21:46:48.930Z,8.53
2023-05-24T21:49:17.173Z,8.20
2023-05-24T21:51:43.772Z,8.57
2023-05-24T21:54:10.364Z,10.00
2023-05-24T21:56:37.359Z,8.90
2023-05-24T21:59:03.852Z,9.20
2023-05-24T22:01:30.502Z,8.70
2023-05-24T22:03:57.273Z,10.00
2023-05-24T22:06:23.902Z,9.27
2023-05-24T22:08:50.475Z,9.00
2023-05-24T22:11:16.969Z,8.77
2023-05-24T22:13:43.455Z,9.00
2023-05-24T22:16:10.028Z,8.43
2023-05-24T22:18:36.689Z,9.87
2023-05-24T22:21:03.544Z,7.90
2023-05-24T22:23:30.101Z,7.40
2023-05-24T22:25:56.610Z,8.00
2023-05-24T22:28:24.799Z,9.03
2023-05-24T22:30:52.219Z,9.00
2023-05-24T22:33:18.719Z,8.00
2023-05-24T22:35:45.354Z,7.80
2023-05-24T22:38:12.470Z,7.77
2023-05-24T22:40:41.950Z,8.33
2023-05-24T22:43:08.568Z,9.00
2023-05-24T22:45:35.064Z,7.60
2023-05-24T22:48:03.389Z,7.30
2023-05-24T22:50:30.114Z,7.13
2023-05-24T22:52:56.822Z,7.47
2023-05-24T22:55:23.881Z,8.73
2023-05-24T22:57:50.718Z,8.30
2023-05-24T23:00:17.438Z,8.60
2023-05-24T23:02:44.008Z,8.40
2023-05-24T23:05:11.417Z,7.93
2023-05-24T23:07:39.712Z,8.50
2023-05-24T23:10:07.909Z,7.57
2023-05-24T23:12:34.741Z,8.37
2023-05-24T23:15:01.294Z,8.30
2023-05-24T23:17:27.909Z,8.83
2023-05-24T23:19:54.514Z,8.77
2023-05-24T23:22:23.468Z,7.33
2023-05-24T23:24:49.984Z,9.63
2023-05-24T23:27:16.509Z,8.10
2023-05-24T23:29:43.264Z,8.63
2023-05-24T23:32:10.166Z,8.50
2023-05-24T23:34:37.451Z,8.73
2023-05-24T23:37:04.685Z,9.33
2023-05-24T23:39:31.438Z,8.60
2023-05-24T23:41:58.038Z,7.10
2023-05-24T23:44:25.544Z,9.10
2023-05-24T23:46:52.720Z,7.80
2023-05-24T23:49:20.121Z,7.50
2023-05-24T23:51:46.634Z,8.57
2023-05-24T23:54:14.675Z,8.40
2023-05-24T23:56:42.646Z,7.73
2023-05-24T23:59:09.250Z,8.57
